sensor_id;sensor_type;location;lat;lon;timestamp;pressure;altitude;pressure_sealevel;temperature;humidity
68301;BME280;55146;47.468;18.806;2023-04-27T00:01:30;100236.25;;;4.63;73.09
68301;BME280;55146;47.468;18.806;2023-04-27T00:03:56;100234.09;;;4.65;73.23
68301;BME280;55146;47.468;18.806;2023-04-27T00:06:22;100241.34;;;4.71;72.86
68301;BME280;55146;47.468;18.806;2023-04-27T00:08:48;100237.09;;;4.75;72.63
68301;BME280;55146;47.468;18.806;2023-04-27T00:11:13;100240.87;;;4.74;72.56
68301;BME280;55146;47.468;18.806;2023-04-27T00:13:39;100247.63;;;4.71;72.09
68301;BME280;55146;47.468;18.806;2023-04-27T00:16:04;100243.00;;;4.72;72.34
68301;BME280;55146;47.468;18.806;2023-04-27T00:18:31;100241.56;;;4.69;72.74
68301;BME280;55146;47.468;18.806;2023-04-27T00:20:56;100245.81;;;4.65;72.66
68301;BME280;55146;47.468;18.806;2023-04-27T00:23:22;100238.97;;;4.63;72.97
68301;BME280;55146;47.468;18.806;2023-04-27T00:25:47;100240.69;;;4.57;72.93
68301;BME280;55146;47.468;18.806;2023-04-27T00:28:13;100239.63;;;4.58;73.07
68301;BME280;55146;47.468;18.806;2023-04-27T00:30:38;100242.97;;;4.60;73.26
68301;BME280;55146;47.468;18.806;2023-04-27T00:33:04;100238.97;;;4.63;72.96
68301;BME280;55146;47.468;18.806;2023-04-27T00:35:31;100236.91;;;4.58;72.50
68301;BME280;55146;47.468;18.806;2023-04-27T00:37:57;100232.28;;;4.59;72.82
68301;BME280;55146;47.468;18.806;2023-04-27T00:40:22;100230.28;;;4.54;73.41
68301;BME280;55146;47.468;18.806;2023-04-27T00:42:47;100225.38;;;4.44;73.32
68301;BME280;55146;47.468;18.806;2023-04-27T00:45:13;100220.97;;;4.32;73.92
68301;BME280;55146;47.468;18.806;2023-04-27T00:47:38;100223.22;;;4.35;74.15
68301;BME280;55146;47.468;18.806;2023-04-27T00:50:04;100230.94;;;4.38;73.70
68301;BME280;55146;47.468;18.806;2023-04-27T00:52:34;100232.12;;;4.42;73.65
68301;BME280;55146;47.468;18.806;2023-04-27T00:55:01;100227.03;;;4.45;73.15
68301;BME280;55146;47.468;18.806;2023-04-27T00:57:28;100230.59;;;4.46;72.54
68301;BME280;55146;47.468;18.806;2023-04-27T00:59:53;100235.56;;;4.37;72.86
68301;BME280;55146;47.468;18.806;2023-04-27T01:02:19;100233.59;;;4.26;73.06
68301;BME280;55146;47.468;18.806;2023-04-27T01:04:44;100230.19;;;4.31;73.21
68301;BME280;55146;47.468;18.806;2023-04-27T01:07:10;100234.06;;;4.23;73.33
68301;BME280;55146;47.468;18.806;2023-04-27T01:09:35;100241.16;;;4.24;73.58
68301;BME280;55146;47.468;18.806;2023-04-27T01:12:00;100237.47;;;4.19;73.54
68301;BME280;55146;47.468;18.806;2023-04-27T01:14:27;100244.69;;;4.13;73.91
68301;BME280;55146;47.468;18.806;2023-04-27T01:16:53;100240.72;;;4.09;74.04
68301;BME280;55146;47.468;18.806;2023-04-27T01:19:18;100250.63;;;4.03;74.09
68301;BME280;55146;47.468;18.806;2023-04-27T01:21:43;100240.66;;;3.97;74.55
68301;BME280;55146;47.468;18.806;2023-04-27T01:24:09;100243.78;;;4.01;74.48
68301;BME280;55146;47.468;18.806;2023-04-27T01:26:34;100246.03;;;4.04;74.34
68301;BME280;55146;47.468;18.806;2023-04-27T01:29:00;100247.69;;;4.05;74.26
68301;BME280;55146;47.468;18.806;2023-04-27T01:31:25;100247.31;;;4.01;74.46
68301;BME280;55146;47.468;18.806;2023-04-27T01:33:50;100253.66;;;3.95;74.44
68301;BME280;55146;47.468;18.806;2023-04-27T01:36:16;100255.78;;;3.93;74.35
68301;BME280;55146;47.468;18.806;2023-04-27T01:38:42;100253.97;;;3.87;74.45
68301;BME280;55146;47.468;18.806;2023-04-27T01:41:08;100259.41;;;3.87;74.67
68301;BME280;55146;47.468;18.806;2023-04-27T01:43:33;100260.84;;;3.90;74.92
68301;BME280;55146;47.468;18.806;2023-04-27T01:46:09;100255.66;;;3.88;74.67
68301;BME280;55146;47.468;18.806;2023-04-27T01:48:36;100265.69;;;3.88;74.07
68301;BME280;55146;47.468;18.806;2023-04-27T01:51:01;100260.00;;;3.89;73.99
68301;BME280;55146;47.468;18.806;2023-04-27T01:53:28;100262.59;;;3.84;74.12
68301;BME280;55146;47.468;18.806;2023-04-27T01:55:53;100257.81;;;3.80;74.43
68301;BME280;55146;47.468;18.806;2023-04-27T01:58:19;100257.00;;;3.79;74.18
68301;BME280;55146;47.468;18.806;2023-04-27T02:00:44;100261.81;;;3.77;73.89
68301;BME280;55146;47.468;18.806;2023-04-27T02:03:09;100259.94;;;3.78;73.94
68301;BME280;55146;47.468;18.806;2023-04-27T02:05:35;100259.34;;;3.76;74.09
68301;BME280;55146;47.468;18.806;2023-04-27T02:08:00;100280.50;;;3.74;74.14
68301;BME280;55146;47.468;18.806;2023-04-27T02:10:26;100265.22;;;3.73;74.41
68301;BME280;55146;47.468;18.806;2023-04-27T02:12:51;100271.13;;;3.70;74.28
68301;BME280;55146;47.468;18.806;2023-04-27T02:15:16;100281.41;;;3.67;73.92
68301;BME280;55146;47.468;18.806;2023-04-27T02:17:42;100271.97;;;3.70;73.96
68301;BME280;55146;47.468;18.806;2023-04-27T02:20:08;100271.78;;;3.65;73.93
68301;BME280;55146;47.468;18.806;2023-04-27T02:22:35;100272.69;;;3.59;73.80
68301;BME280;55146;47.468;18.806;2023-04-27T02:25:01;100287.94;;;3.60;74.00
68301;BME280;55146;47.468;18.806;2023-04-27T02:27:26;100290.09;;;3.58;74.22
68301;BME280;55146;47.468;18.806;2023-04-27T02:29:51;100299.34;;;3.50;73.92
68301;BME280;55146;47.468;18.806;2023-04-27T02:32:17;100290.56;;;3.48;74.17
68301;BME280;55146;47.468;18.806;2023-04-27T02:34:42;100296.47;;;3.45;74.16
68301;BME280;55146;47.468;18.806;2023-04-27T02:37:07;100287.47;;;3.45;74.46
68301;BME280;55146;47.468;18.806;2023-04-27T02:39:33;100296.59;;;3.32;74.69
68301;BME280;55146;47.468;18.806;2023-04-27T02:41:58;100294.13;;;3.24;75.33
68301;BME280;55146;47.468;18.806;2023-04-27T02:44:24;100296.22;;;3.22;75.48
68301;BME280;55146;47.468;18.806;2023-04-27T02:46:49;100295.13;;;3.30;75.76
68301;BME280;55146;47.468;18.806;2023-04-27T02:49:15;100303.91;;;3.32;75.25
68301;BME280;55146;47.468;18.806;2023-04-27T02:51:41;100306.22;;;3.28;75.23
68301;BME280;55146;47.468;18.806;2023-04-27T02:54:06;100309.62;;;3.23;75.77
68301;BME280;55146;47.468;18.806;2023-04-27T02:56:31;100308.63;;;3.18;76.30
68301;BME280;55146;47.468;18.806;2023-04-27T02:58:57;100313.22;;;3.17;76.72
68301;BME280;55146;47.468;18.806;2023-04-27T03:01:22;100304.44;;;3.15;76.41
68301;BME280;55146;47.468;18.806;2023-04-27T03:03:47;100313.69;;;3.14;76.10
68301;BME280;55146;47.468;18.806;2023-04-27T03:06:13;100316.38;;;3.14;76.17
68301;BME280;55146;47.468;18.806;2023-04-27T03:08:39;100313.06;;;3.12;76.09
68301;BME280;55146;47.468;18.806;2023-04-27T03:11:05;100320.59;;;3.10;76.52
68301;BME280;55146;47.468;18.806;2023-04-27T03:13:30;100321.25;;;3.06;76.64
68301;BME280;55146;47.468;18.806;2023-04-27T03:16:00;100318.97;;;3.03;76.97
68301;BME280;55146;47.468;18.806;2023-04-27T03:18:25;100313.72;;;3.08;76.96
68301;BME280;55146;47.468;18.806;2023-04-27T03:20:50;100304.94;;;3.06;76.94
68301;BME280;55146;47.468;18.806;2023-04-27T03:23:16;100313.94;;;3.06;76.64
68301;BME280;55146;47.468;18.806;2023-04-27T03:25:41;100322.72;;;3.08;76.74
68301;BME280;55146;47.468;18.806;2023-04-27T03:28:06;100314.16;;;3.05;76.56
68301;BME280;55146;47.468;18.806;2023-04-27T03:30:32;100317.94;;;2.97;76.22
68301;BME280;55146;47.468;18.806;2023-04-27T03:32:57;100327.31;;;3.08;76.68
68301;BME280;55146;47.468;18.806;2023-04-27T03:35:23;100323.91;;;3.12;76.67
68301;BME280;55146;47.468;18.806;2023-04-27T03:37:48;100326.91;;;3.04;76.03
68301;BME280;55146;47.468;18.806;2023-04-27T03:40:14;100332.34;;;3.04;76.35
68301;BME280;55146;47.468;18.806;2023-04-27T03:42:39;100332.28;;;3.11;76.57
68301;BME280;55146;47.468;18.806;2023-04-27T03:45:05;100335.63;;;3.13;76.81
68301;BME280;55146;47.468;18.806;2023-04-27T03:47:31;100338.56;;;3.11;76.21
68301;BME280;55146;47.468;18.806;2023-04-27T03:49:56;100335.63;;;3.13;76.39
68301;BME280;55146;47.468;18.806;2023-04-27T03:52:21;100335.84;;;3.11;76.57
68301;BME280;55146;47.468;18.806;2023-04-27T03:54:47;100341.97;;;3.00;76.18
68301;BME280;55146;47.468;18.806;2023-04-27T03:57:12;100336.94;;;3.04;76.22
68301;BME280;55146;47.468;18.806;2023-04-27T03:59:38;100341.97;;;3.00;76.22
68301;BME280;55146;47.468;18.806;2023-04-27T04:02:03;100340.53;;;2.98;76.58
68301;BME280;55146;47.468;18.806;2023-04-27T04:04:29;100335.34;;;2.96;76.76
68301;BME280;55146;47.468;18.806;2023-04-27T04:06:55;100345.97;;;2.98;76.99
68301;BME280;55146;47.468;18.806;2023-04-27T04:09:20;100346.97;;;3.03;77.34
68301;BME280;55146;47.468;18.806;2023-04-27T04:11:46;100346.38;;;3.01;77.05
68301;BME280;55146;47.468;18.806;2023-04-27T04:14:11;100350.81;;;2.96;77.08
68301;BME280;55146;47.468;18.806;2023-04-27T04:16:36;100356.44;;;2.94;77.86
68301;BME280;55146;47.468;18.806;2023-04-27T04:19:02;100358.53;;;2.92;78.24
68301;BME280;55146;47.468;18.806;2023-04-27T04:21:27;100359.59;;;2.91;78.65
68301;BME280;55146;47.468;18.806;2023-04-27T04:23:52;100363.72;;;3.00;78.69
68301;BME280;55146;47.468;18.806;2023-04-27T04:26:18;100359.72;;;3.03;78.57
68301;BME280;55146;47.468;18.806;2023-04-27T04:28:45;100365.94;;;3.10;78.30
68301;BME280;55146;47.468;18.806;2023-04-27T04:31:13;100359.63;;;3.16;78.00
68301;BME280;55146;47.468;18.806;2023-04-27T04:33:41;100350.22;;;3.18;77.78
68301;BME280;55146;47.468;18.806;2023-04-27T04:36:07;100365.44;;;3.26;77.91
68301;BME280;55146;47.468;18.806;2023-04-27T04:38:32;100372.09;;;3.30;77.78
68301;BME280;55146;47.468;18.806;2023-04-27T04:40:58;100372.87;;;3.37;78.13
68301;BME280;55146;47.468;18.806;2023-04-27T04:43:24;100372.81;;;3.44;78.54
68301;BME280;55146;47.468;18.806;2023-04-27T04:45:50;100379.25;;;3.49;79.24
68301;BME280;55146;47.468;18.806;2023-04-27T04:48:16;100380.47;;;3.53;79.56
68301;BME280;55146;47.468;18.806;2023-04-27T04:50:42;100380.88;;;3.57;80.44
68301;BME280;55146;47.468;18.806;2023-04-27T04:53:07;100378.69;;;3.65;80.66
68301;BME280;55146;47.468;18.806;2023-04-27T04:55:33;100383.88;;;3.74;80.84
68301;BME280;55146;47.468;18.806;2023-04-27T04:58:01;100377.53;;;3.80;80.55
68301;BME280;55146;47.468;18.806;2023-04-27T05:00:27;100380.41;;;3.85;80.73
68301;BME280;55146;47.468;18.806;2023-04-27T05:02:52;100381.25;;;3.85;80.76
68301;BME280;55146;47.468;18.806;2023-04-27T05:05:17;100384.75;;;3.92;80.82
68301;BME280;55146;47.468;18.806;2023-04-27T05:07:43;100390.97;;;3.99;80.47
68301;BME280;55146;47.468;18.806;2023-04-27T05:10:08;100392.31;;;4.08;78.89
68301;BME280;55146;47.468;18.806;2023-04-27T05:12:33;100381.28;;;4.03;78.29
68301;BME280;55146;47.468;18.806;2023-04-27T05:14:59;100381.59;;;4.14;77.88
68301;BME280;55146;47.468;18.806;2023-04-27T05:17:25;100385.69;;;4.23;77.29
68301;BME280;55146;47.468;18.806;2023-04-27T05:19:50;100390.38;;;4.34;76.93
68301;BME280;55146;47.468;18.806;2023-04-27T05:22:16;100386.44;;;4.48;76.92
68301;BME280;55146;47.468;18.806;2023-04-27T05:24:41;100390.16;;;4.54;76.33
68301;BME280;55146;47.468;18.806;2023-04-27T05:27:06;100387.97;;;4.62;75.80
68301;BME280;55146;47.468;18.806;2023-04-27T05:29:35;100398.66;;;4.75;75.61
68301;BME280;55146;47.468;18.806;2023-04-27T05:32:00;100397.66;;;4.88;75.36
68301;BME280;55146;47.468;18.806;2023-04-27T05:34:25;100392.03;;;5.01;75.62
68301;BME280;55146;47.468;18.806;2023-04-27T05:36:51;100393.75;;;5.14;75.52
68301;BME280;55146;47.468;18.806;2023-04-27T05:39:16;100398.28;;;5.20;75.32
68301;BME280;55146;47.468;18.806;2023-04-27T05:41:41;100399.16;;;5.32;75.14
68301;BME280;55146;47.468;18.806;2023-04-27T05:44:07;100400.28;;;5.43;75.46
68301;BME280;55146;47.468;18.806;2023-04-27T05:46:32;100394.09;;;5.47;76.42
68301;BME280;55146;47.468;18.806;2023-04-27T05:48:58;100407.66;;;5.65;76.12
68301;BME280;55146;47.468;18.806;2023-04-27T05:51:23;100413.16;;;5.77;75.12
68301;BME280;55146;47.468;18.806;2023-04-27T05:53:49;100412.97;;;5.90;74.97
68301;BME280;55146;47.468;18.806;2023-04-27T05:56:14;100410.13;;;6.08;73.56
68301;BME280;55146;47.468;18.806;2023-04-27T05:58:40;100408.31;;;6.26;72.24
68301;BME280;55146;47.468;18.806;2023-04-27T06:01:06;100407.25;;;6.38;72.30
68301;BME280;55146;47.468;18.806;2023-04-27T06:03:31;100411.16;;;6.54;70.18
68301;BME280;55146;47.468;18.806;2023-04-27T06:05:58;100419.22;;;6.72;73.64
68301;BME280;55146;47.468;18.806;2023-04-27T06:08:24;100411.66;;;6.91;69.43
68301;BME280;55146;47.468;18.806;2023-04-27T06:10:50;100411.22;;;7.11;68.83
68301;BME280;55146;47.468;18.806;2023-04-27T06:13:16;100417.78;;;7.38;68.91
68301;BME280;55146;47.468;18.806;2023-04-27T06:15:45;100412.69;;;7.75;69.50
68301;BME280;55146;47.468;18.806;2023-04-27T06:18:11;100414.66;;;8.13;68.23
68301;BME280;55146;47.468;18.806;2023-04-27T06:20:37;100420.59;;;8.60;66.40
68301;BME280;55146;47.468;18.806;2023-04-27T06:23:02;100417.22;;;8.97;62.99
68301;BME280;55146;47.468;18.806;2023-04-27T06:25:28;100402.34;;;9.41;63.82
68301;BME280;55146;47.468;18.806;2023-04-27T06:27:54;100409.03;;;9.82;62.20
68301;BME280;55146;47.468;18.806;2023-04-27T06:30:27;100410.22;;;10.18;58.47
68301;BME280;55146;47.468;18.806;2023-04-27T06:32:52;100398.91;;;10.62;59.60
68301;BME280;55146;47.468;18.806;2023-04-27T06:35:18;100400.97;;;10.91;58.57
68301;BME280;55146;47.468;18.806;2023-04-27T06:37:43;100399.44;;;11.21;58.27
68301;BME280;55146;47.468;18.806;2023-04-27T06:40:09;100397.00;;;11.40;55.24
68301;BME280;55146;47.468;18.806;2023-04-27T06:42:35;100401.72;;;11.59;56.20
68301;BME280;55146;47.468;18.806;2023-04-27T06:45:04;100404.53;;;11.85;54.50
68301;BME280;55146;47.468;18.806;2023-04-27T06:47:29;100409.50;;;12.03;53.79
68301;BME280;55146;47.468;18.806;2023-04-27T06:49:55;100412.75;;;12.35;52.61
68301;BME280;55146;47.468;18.806;2023-04-27T06:52:20;100409.69;;;12.57;51.43
68301;BME280;55146;47.468;18.806;2023-04-27T06:54:46;100412.12;;;12.74;50.86
68301;BME280;55146;47.468;18.806;2023-04-27T06:57:11;100416.78;;;12.83;50.83
68301;BME280;55146;47.468;18.806;2023-04-27T06:59:37;100418.31;;;13.10;49.56
68301;BME280;55146;47.468;18.806;2023-04-27T07:02:03;100409.69;;;13.31;47.80
68301;BME280;55146;47.468;18.806;2023-04-27T07:04:28;100415.91;;;13.52;47.75
68301;BME280;55146;47.468;18.806;2023-04-27T07:06:54;100415.88;;;13.62;47.14
68301;BME280;55146;47.468;18.806;2023-04-27T07:09:20;100409.94;;;13.79;49.57
68301;BME280;55146;47.468;18.806;2023-04-27T07:11:45;100416.03;;;14.10;47.18
68301;BME280;55146;47.468;18.806;2023-04-27T07:14:11;100412.41;;;14.48;46.90
68301;BME280;55146;47.468;18.806;2023-04-27T07:16:36;100418.91;;;14.63;41.56
68301;BME280;55146;47.468;18.806;2023-04-27T07:19:01;100408.66;;;14.87;42.65
68301;BME280;55146;47.468;18.806;2023-04-27T07:21:27;100414.16;;;15.11;43.10
68301;BME280;55146;47.468;18.806;2023-04-27T07:23:53;100410.00;;;15.32;41.42
68301;BME280;55146;47.468;18.806;2023-04-27T07:26:18;100414.81;;;15.45;39.15
68301;BME280;55146;47.468;18.806;2023-04-27T07:28:44;100412.06;;;15.64;38.65
68301;BME280;55146;47.468;18.806;2023-04-27T07:31:14;100416.41;;;15.89;39.56
68301;BME280;55146;47.468;18.806;2023-04-27T07:33:39;100418.50;;;15.97;37.96
68301;BME280;55146;47.468;18.806;2023-04-27T07:36:05;100417.94;;;16.13;39.28
68301;BME280;55146;47.468;18.806;2023-04-27T07:38:30;100417.44;;;16.25;37.50
68301;BME280;55146;47.468;18.806;2023-04-27T07:40:59;100415.84;;;16.38;35.94
68301;BME280;55146;47.468;18.806;2023-04-27T07:43:30;100415.94;;;16.33;32.80
68301;BME280;55146;47.468;18.806;2023-04-27T07:46:06;100410.75;;;16.58;34.70
68301;BME280;55146;47.468;18.806;2023-04-27T07:48:31;100421.72;;;16.82;34.31
68301;BME280;55146;47.468;18.806;2023-04-27T07:50:57;100425.50;;;16.86;35.47
68301;BME280;55146;47.468;18.806;2023-04-27T07:53:22;100419.25;;;17.08;33.75
68301;BME280;55146;47.468;18.806;2023-04-27T07:55:47;100423.75;;;17.18;34.05
68301;BME280;55146;47.468;18.806;2023-04-27T07:58:16;100419.31;;;17.30;34.00
68301;BME280;55146;47.468;18.806;2023-04-27T08:00:41;100422.22;;;17.12;34.89
68301;BME280;55146;47.468;18.806;2023-04-27T08:03:07;100415.75;;;17.03;31.60
68301;BME280;55146;47.468;18.806;2023-04-27T08:05:33;100414.50;;;16.95;33.38
68301;BME280;55146;47.468;18.806;2023-04-27T08:07:58;100419.72;;;17.10;34.30
68301;BME280;55146;47.468;18.806;2023-04-27T08:10:23;100424.03;;;17.44;33.53
68301;BME280;55146;47.468;18.806;2023-04-27T08:12:55;100424.31;;;17.56;33.77
68301;BME280;55146;47.468;18.806;2023-04-27T08:15:20;100422.22;;;17.25;30.46
68301;BME280;55146;47.468;18.806;2023-04-27T08:17:46;100423.03;;;17.26;33.12
68301;BME280;55146;47.468;18.806;2023-04-27T08:20:12;100424.44;;;17.51;32.79
68301;BME280;55146;47.468;18.806;2023-04-27T08:22:38;100423.19;;;17.70;31.21
68301;BME280;55146;47.468;18.806;2023-04-27T08:25:05;100417.81;;;17.96;32.65
68301;BME280;55146;47.468;18.806;2023-04-27T08:27:31;100418.41;;;18.07;31.15
68301;BME280;55146;47.468;18.806;2023-04-27T08:29:57;100412.94;;;18.24;33.34
68301;BME280;55146;47.468;18.806;2023-04-27T08:32:25;100423.72;;;18.17;31.60
68301;BME280;55146;47.468;18.806;2023-04-27T08:34:50;100413.25;;;18.45;30.41
68301;BME280;55146;47.468;18.806;2023-04-27T08:37:16;100420.50;;;18.54;31.29
68301;BME280;55146;47.468;18.806;2023-04-27T08:39:43;100418.03;;;18.53;30.64
68301;BME280;55146;47.468;18.806;2023-04-27T08:42:12;100414.66;;;18.56;31.26
68301;BME280;55146;47.468;18.806;2023-04-27T08:44:42;100407.72;;;18.53;31.56
68301;BME280;55146;47.468;18.806;2023-04-27T08:47:08;100414.91;;;18.77;31.83
68301;BME280;55146;47.468;18.806;2023-04-27T08:49:35;100418.41;;;18.82;30.01
68301;BME280;55146;47.468;18.806;2023-04-27T08:52:03;100422.31;;;18.81;29.18
68301;BME280;55146;47.468;18.806;2023-04-27T08:54:28;100421.44;;;18.72;29.69
68301;BME280;55146;47.468;18.806;2023-04-27T08:56:55;100417.22;;;18.75;28.36
68301;BME280;55146;47.468;18.806;2023-04-27T08:59:20;100415.31;;;19.01;28.79
68301;BME280;55146;47.468;18.806;2023-04-27T09:01:46;100419.13;;;19.05;29.59
68301;BME280;55146;47.468;18.806;2023-04-27T09:04:12;100408.66;;;19.11;30.23
68301;BME280;55146;47.468;18.806;2023-04-27T09:06:38;100406.56;;;19.25;30.20
68301;BME280;55146;47.468;18.806;2023-04-27T09:09:04;100401.66;;;19.30;30.69
68301;BME280;55146;47.468;18.806;2023-04-27T09:11:35;100395.88;;;19.27;30.60
68301;BME280;55146;47.468;18.806;2023-04-27T09:16:41;100404.25;;;19.27;29.55
68301;BME280;55146;47.468;18.806;2023-04-27T09:19:06;100404.56;;;18.77;28.74
68301;BME280;55146;47.468;18.806;2023-04-27T09:21:38;100403.50;;;18.34;30.91
68301;BME280;55146;47.468;18.806;2023-04-27T09:24:10;100396.34;;;18.41;30.37
68301;BME280;55146;47.468;18.806;2023-04-27T09:26:39;100402.00;;;18.05;30.64
68301;BME280;55146;47.468;18.806;2023-04-27T09:29:08;100398.34;;;18.49;30.91
68301;BME280;55146;47.468;18.806;2023-04-27T09:31:36;100395.47;;;18.94;32.57
68301;BME280;55146;47.468;18.806;2023-04-27T09:34:02;100395.91;;;19.35;31.04
68301;BME280;55146;47.468;18.806;2023-04-27T09:36:29;100388.91;;;19.64;30.76
68301;BME280;55146;47.468;18.806;2023-04-27T09:38:55;100391.53;;;19.52;25.88
68301;BME280;55146;47.468;18.806;2023-04-27T09:41:21;100393.63;;;19.37;29.93
68301;BME280;55146;47.468;18.806;2023-04-27T09:43:46;100388.44;;;18.57;28.02
68301;BME280;55146;47.468;18.806;2023-04-27T09:46:12;100390.41;;;18.65;29.99
68301;BME280;55146;47.468;18.806;2023-04-27T09:48:39;100392.94;;;18.44;31.04
68301;BME280;55146;47.468;18.806;2023-04-27T09:51:05;100388.41;;;17.82;31.25
68301;BME280;55146;47.468;18.806;2023-04-27T09:53:51;100373.66;;;18.03;29.76
68301;BME280;55146;47.468;18.806;2023-04-27T09:56:39;100384.19;;;18.37;31.58
68301;BME280;55146;47.468;18.806;2023-04-27T10:01:59;100375.66;;;18.65;33.40
68301;BME280;55146;47.468;18.806;2023-04-27T10:07:01;100371.91;;;19.17;29.92
68301;BME280;55146;47.468;18.806;2023-04-27T10:09:38;100372.09;;;18.42;31.02
68301;BME280;55146;47.468;18.806;2023-04-27T10:12:17;100375.28;;;18.97;31.85
68301;BME280;55146;47.468;18.806;2023-04-27T10:17:23;100363.72;;;19.38;28.78
68301;BME280;55146;47.468;18.806;2023-04-27T10:19:54;100370.19;;;18.82;30.10
68301;BME280;55146;47.468;18.806;2023-04-27T10:22:20;100375.69;;;19.21;30.04
68301;BME280;55146;47.468;18.806;2023-04-27T10:24:48;100368.34;;;19.43;32.26
68301;BME280;55146;47.468;18.806;2023-04-27T10:27:16;100371.81;;;19.48;29.36
68301;BME280;55146;47.468;18.806;2023-04-27T10:29:47;100367.25;;;19.61;27.12
68301;BME280;55146;47.468;18.806;2023-04-27T10:32:22;100365.28;;;19.61;29.31
68301;BME280;55146;47.468;18.806;2023-04-27T10:35:01;100363.78;;;19.90;31.40
68301;BME280;55146;47.468;18.806;2023-04-27T10:37:38;100367.88;;;20.01;30.30
68301;BME280;55146;47.468;18.806;2023-04-27T10:40:07;100360.59;;;20.34;31.92
68301;BME280;55146;47.468;18.806;2023-04-27T10:42:34;100368.78;;;20.48;30.64
68301;BME280;55146;47.468;18.806;2023-04-27T10:45:00;100368.03;;;20.04;27.01
68301;BME280;55146;47.468;18.806;2023-04-27T10:47:37;100364.38;;;19.26;28.38
68301;BME280;55146;47.468;18.806;2023-04-27T10:50:08;100369.09;;;19.09;30.69
68301;BME280;55146;47.468;18.806;2023-04-27T10:52:42;100362.72;;;19.17;32.42
68301;BME280;55146;47.468;18.806;2023-04-27T10:55:19;100354.88;;;19.45;30.14
68301;BME280;55146;47.468;18.806;2023-04-27T10:57:55;100366.50;;;19.38;30.63
68301;BME280;55146;47.468;18.806;2023-04-27T11:00:34;100365.44;;;19.73;31.61
68301;BME280;55146;47.468;18.806;2023-04-27T11:03:18;100370.94;;;19.39;28.66
68301;BME280;55146;47.468;18.806;2023-04-27T11:05:46;100367.56;;;18.24;29.28
68301;BME280;55146;47.468;18.806;2023-04-27T11:08:13;100371.09;;;18.38;31.99
68301;BME280;55146;47.468;18.806;2023-04-27T11:10:44;100363.66;;;18.55;31.52
68301;BME280;55146;47.468;18.806;2023-04-27T11:13:13;100368.75;;;18.31;31.97
68301;BME280;55146;47.468;18.806;2023-04-27T11:15:50;100361.31;;;18.18;32.51
68301;BME280;55146;47.468;18.806;2023-04-27T11:18:18;100361.63;;;18.16;32.57
68301;BME280;55146;47.468;18.806;2023-04-27T11:20:47;100361.72;;;18.56;32.25
68301;BME280;55146;47.468;18.806;2023-04-27T11:23:26;100348.72;;;18.91;31.80
68301;BME280;55146;47.468;18.806;2023-04-27T11:25:52;100360.75;;;19.26;33.74
68301;BME280;55146;47.468;18.806;2023-04-27T11:28:18;100363.06;;;19.32;30.90
68301;BME280;55146;47.468;18.806;2023-04-27T11:30:44;100353.44;;;19.64;31.10
68301;BME280;55146;47.468;18.806;2023-04-27T11:33:09;100349.84;;;19.55;30.39
68301;BME280;55146;47.468;18.806;2023-04-27T11:35:44;100361.06;;;18.59;29.14
68301;BME280;55146;47.468;18.806;2023-04-27T11:38:19;100361.25;;;17.87;30.23
68301;BME280;55146;47.468;18.806;2023-04-27T11:40:46;100361.06;;;18.06;30.92
68301;BME280;55146;47.468;18.806;2023-04-27T11:43:14;100361.22;;;18.32;33.22
68301;BME280;55146;47.468;18.806;2023-04-27T11:45:43;100359.75;;;18.65;31.47
68301;BME280;55146;47.468;18.806;2023-04-27T11:48:14;100362.75;;;18.77;32.19
68301;BME280;55146;47.468;18.806;2023-04-27T11:50:40;100350.69;;;18.51;30.33
68301;BME280;55146;47.468;18.806;2023-04-27T11:53:05;100349.47;;;18.74;31.62
68301;BME280;55146;47.468;18.806;2023-04-27T11:55:34;100353.25;;;18.78;31.37
68301;BME280;55146;47.468;18.806;2023-04-27T11:58:00;100355.37;;;18.42;32.15
68301;BME280;55146;47.468;18.806;2023-04-27T12:00:26;100359.28;;;18.10;31.63
68301;BME280;55146;47.468;18.806;2023-04-27T12:02:51;100370.81;;;17.72;30.68
68301;BME280;55146;47.468;18.806;2023-04-27T12:05:17;100360.09;;;17.30;32.44
68301;BME280;55146;47.468;18.806;2023-04-27T12:07:44;100362.78;;;17.71;33.49
68301;BME280;55146;47.468;18.806;2023-04-27T12:10:09;100345.31;;;18.01;29.33
68301;BME280;55146;47.468;18.806;2023-04-27T12:12:35;100348.16;;;18.41;32.96
68301;BME280;55146;47.468;18.806;2023-04-27T12:15:07;100340.72;;;18.58;31.45
68301;BME280;55146;47.468;18.806;2023-04-27T12:17:33;100336.75;;;18.51;32.61
68301;BME280;55146;47.468;18.806;2023-04-27T12:19:58;100339.28;;;18.61;32.50
68301;BME280;55146;47.468;18.806;2023-04-27T12:22:24;100340.47;;;18.77;29.84
68301;BME280;55146;47.468;18.806;2023-04-27T12:24:50;100343.00;;;19.05;31.50
68301;BME280;55146;47.468;18.806;2023-04-27T12:27:15;100336.78;;;19.16;31.28
68301;BME280;55146;47.468;18.806;2023-04-27T12:29:40;100339.31;;;18.78;31.55
68301;BME280;55146;47.468;18.806;2023-04-27T12:32:06;100341.53;;;19.07;31.90
68301;BME280;55146;47.468;18.806;2023-04-27T12:34:32;100338.59;;;19.21;30.84
68301;BME280;55146;47.468;18.806;2023-04-27T12:36:58;100328.09;;;19.26;30.53
68301;BME280;55146;47.468;18.806;2023-04-27T12:39:23;100334.22;;;18.72;31.26
68301;BME280;55146;47.468;18.806;2023-04-27T12:41:50;100338.59;;;18.02;30.43
68301;BME280;55146;47.468;18.806;2023-04-27T12:44:17;100330.00;;;17.90;29.30
68301;BME280;55146;47.468;18.806;2023-04-27T12:46:43;100321.72;;;17.99;31.79
68301;BME280;55146;47.468;18.806;2023-04-27T12:49:09;100333.25;;;17.84;29.47
68301;BME280;55146;47.468;18.806;2023-04-27T12:51:36;100335.31;;;18.00;31.89
68301;BME280;55146;47.468;18.806;2023-04-27T12:54:02;100329.09;;;18.03;28.91